createdAt,value
2023-05-25T00:01:03.605Z,22.17
2023-05-25T00:06:10.461Z,21.58
2023-05-25T00:11:14.745Z,22.85
2023-05-25T00:16:20.271Z,23.83
2023-05-25T00:21:25.787Z,22.10
2023-05-25T00:26:29.820Z,24.85
2023-05-25T00:31:35.617Z,24.15
2023-05-25T00:36:39.981Z,24.88
2023-05-25T00:41:45.780Z,24.83
2023-05-25T00:46:53.614Z,24.42
2023-05-25T00:51:59.339Z,24.75
2023-05-25T00:57:05.335Z,24.42
2023-05-25T01:02:13.553Z,22.50
2023-05-25T01:07:22.279Z,23.42
2023-05-25T01:12:28.527Z,24.70
2023-05-25T01:17:38.312Z,22.58
2023-05-25T01:22:49.167Z,23.50
2023-05-25T01:27:58.963Z,22.70
2023-05-25T01:33:03.480Z,20.05
2023-05-25T01:38:10.939Z,22.75
2023-05-25T01:43:17.961Z,20.65
2023-05-25T01:48:31.607Z,21.23
2023-05-25T01:53:39.997Z,18.50
2023-05-25T01:58:46.665Z,20.77
2023-05-25T02:03:51.699Z,21.02
2023-05-25T02:08:57.331Z,19.80
2023-05-25T02:14:02.452Z,20.02
2023-05-25T02:19:06.608Z,20.70
2023-05-25T02:24:12.534Z,20.45
2023-05-25T02:29:16.544Z,23.27
2023-05-25T02:34:20.850Z,22.23
2023-05-25T02:39:27.874Z,23.05
2023-05-25T02:44:33.868Z,22.65
2023-05-25T02:49:38.059Z,21.92
2023-05-25T02:54:43.629Z,23.92
2023-05-25T02:59:54.259Z,23.15
2023-05-25T03:04:58.505Z,23.55
2023-05-25T03:10:04.039Z,24.20
2023-05-25T03:15:13.263Z,22.63
2023-05-25T03:20:17.994Z,25.00
2023-05-25T03:25:26.541Z,25.65
2023-05-25T03:35:36.025Z,25.15
2023-05-25T03:40:41.584Z,27.88
2023-05-25T03:45:46.374Z,26.30
2023-05-25T03:50:51.350Z,27.50
2023-05-25T03:55:56.952Z,31.20
2023-05-25T04:01:02.013Z,29.15
2023-05-25T04:06:07.582Z,28.38
2023-05-25T04:11:13.277Z,31.65
2023-05-25T04:16:18.073Z,29.08
2023-05-25T04:21:23.083Z,30.30
2023-05-25T04:26:29.027Z,30.95
2023-05-25T04:31:34.428Z,29.13
2023-05-25T04:36:52.696Z,29.65
2023-05-25T04:42:01.814Z,32.35
2023-05-25T04:47:07.440Z,33.95
2023-05-25T04:52:14.374Z,33.72
2023-05-25T04:57:23.613Z,31.98
2023-05-25T05:02:31.439Z,33.72
2023-05-25T05:07:39.920Z,34.58
2023-05-25T05:12:49.145Z,33.63
2023-05-25T05:17:55.847Z,35.67
2023-05-25T05:23:01.567Z,37.65
2023-05-25T05:28:07.072Z,37.55
2023-05-25T05:33:16.247Z,36.15
2023-05-25T05:38:24.562Z,36.53
2023-05-25T05:43:30.030Z,37.72
2023-05-25T05:48:34.306Z,38.05
2023-05-25T05:53:38.483Z,39.65
2023-05-25T05:58:43.956Z,37.88
2023-05-25T06:03:48.136Z,38.85
2023-05-25T06:08:52.442Z,39.55
2023-05-25T06:13:58.046Z,42.17
2023-05-25T06:24:07.242Z,43.13
2023-05-25T06:29:14.192Z,42.28
2023-05-25T06:34:20.600Z,43.88
2023-05-25T06:39:24.795Z,45.97
2023-05-25T06:44:30.716Z,49.88
2023-05-25T06:49:38.615Z,46.13
2023-05-25T06:54:42.830Z,46.80
2023-05-25T06:59:48.497Z,42.35
2023-05-25T07:04:52.810Z,45.88
2023-05-25T07:09:57.135Z,41.90
2023-05-25T07:15:02.553Z,47.13
2023-05-25T07:20:07.839Z,45.20
2023-05-25T07:25:12.155Z,45.60
2023-05-25T07:30:17.924Z,47.40
2023-05-25T07:40:25.957Z,44.08
2023-05-25T07:45:31.347Z,43.78
2023-05-25T07:50:35.394Z,42.20
2023-05-25T07:55:39.628Z,43.92
2023-05-25T08:00:45.088Z,45.10
2023-05-25T08:05:49.179Z,37.97
2023-05-25T08:10:53.954Z,40.03
2023-05-25T08:15:59.749Z,43.58
2023-05-25T08:26:20.388Z,40.75
2023-05-25T08:31:33.712Z,44.75
2023-05-25T08:36:38.804Z,45.25
2023-05-25T08:41:45.369Z,45.45
2023-05-25T08:46:50.936Z,44.40
2023-05-25T08:51:56.773Z,43.00
2023-05-25T08:57:07.283Z,45.65
2023-05-25T09:02:22.748Z,47.38
2023-05-25T09:07:27.750Z,46.28
2023-05-25T09:12:32.887Z,42.67
2023-05-25T09:17:38.606Z,44.17
2023-05-25T09:22:43.092Z,44.42
2023-05-25T09:27:47.405Z,43.15
2023-05-25T09:32:52.926Z,44.28
2023-05-25T09:37:57.232Z,42.30
2023-05-25T09:43:01.623Z,44.55
2023-05-25T09:48:08.228Z,43.10
2023-05-25T09:53:13.924Z,38.35
2023-05-25T09:58:18.279Z,32.90
2023-05-25T10:03:24.156Z,33.65
2023-05-25T10:08:29.301Z,32.75
2023-05-25T10:13:34.820Z,31.90
2023-05-25T10:18:45.429Z,33.83
2023-05-25T10:23:53.974Z,31.73
2023-05-25T10:29:01.698Z,30.55
2023-05-25T10:34:12.668Z,28.27
2023-05-25T10:39:18.338Z,26.08
2023-05-25T10:49:35.460Z,25.35
2023-05-25T10:54:40.560Z,24.75
2023-05-25T10:59:45.728Z,23.40
2023-05-25T11:05:17.710Z,22.77
2023-05-25T11:11:08.341Z,20.92
2023-05-25T11:16:22.955Z,21.70
2023-05-25T11:21:50.946Z,21.05
2023-05-25T11:32:51.480Z,20.17
2023-05-25T11:38:00.563Z,19.85
2023-05-25T11:43:09.701Z,20.08
2023-05-25T11:48:16.368Z,19.08
2023-05-25T11:53:36.509Z,18.52
2023-05-25T12:06:28.036Z,20.75
2023-05-25T12:11:34.908Z,21.02
2023-05-25T12:16:40.909Z,20.95
2023-05-25T12:21:45.854Z,19.85
2023-05-25T12:26:57.828Z,16.77
2023-05-25T12:32:05.721Z,18.30
2023-05-25T12:37:20.077Z,18.88
2023-05-25T12:42:27.680Z,18.02
2023-05-25T12:47:32.497Z,17.58
2023-05-25T12:52:38.332Z,18.80
2023-05-25T13:02:49.587Z,17.90
2023-05-25T13:07:57.145Z,16.85
2023-05-25T13:13:03.959Z,16.90
2023-05-25T13:18:08.054Z,16.85
2023-05-25T13:23:12.217Z,17.55
2023-05-25T13:28:17.794Z,16.90
2023-05-25T13:38:26.146Z,18.27
2023-05-25T13:43:32.075Z,18.67
2023-05-25T13:48:36.255Z,17.25
2023-05-25T13:53:40.343Z,17.88
2023-05-25T13:58:45.905Z,18.05
2023-05-25T14:03:50.145Z,18.90
2023-05-25T14:08:54.445Z,17.73
2023-05-25T14:14:00.015Z,18.55
2023-05-25T14:24:08.556Z,19.02
2023-05-25T14:29:14.102Z,18.13
2023-05-25T14:39:22.312Z,19.63
2023-05-25T14:44:27.824Z,20.13
2023-05-25T14:49:32.469Z,19.05
2023-05-25T14:54:36.483Z,18.40
2023-05-25T14:59:41.976Z,19.20
2023-05-25T15:04:47.761Z,20.67
2023-05-25T15:09:52.079Z,19.23
2023-05-25T15:14:57.587Z,19.20
2023-05-25T15:20:02.138Z,21.55
2023-05-25T15:25:09.382Z,18.17
2023-05-25T15:30:15.097Z,19.27
2023-05-25T15:40:22.849Z,19.75
2023-05-25T15:45:28.145Z,19.23
2023-05-25T15:50:32.162Z,19.85
2023-05-25T15:55:36.597Z,20.15
2023-05-25T16:00:42.062Z,18.97
2023-05-25T16:05:47.978Z,20.38
2023-05-25T16:10:51.920Z,22.00
2023-05-25T16:15:57.286Z,20.08
2023-05-25T16:26:06.093Z,21.33
2023-05-25T16:31:12.311Z,20.35
2023-05-25T16:36:17.201Z,20.42
2023-05-25T16:41:21.410Z,21.60
2023-05-25T16:46:26.967Z,21.23
2023-05-25T16:56:35.658Z,20.95
2023-05-25T17:01:41.114Z,23.20
2023-05-25T17:06:45.228Z,22.30
2023-05-25T17:11:50.368Z,22.48
2023-05-25T17:16:56.698Z,22.38
2023-05-25T17:22:00.895Z,22.20
2023-05-25T17:27:05.420Z,23.30
2023-05-25T17:32:10.909Z,24.38
2023-05-25T17:42:18.850Z,23.85
2023-05-25T17:47:25.612Z,23.50
2023-05-25T17:52:31.496Z,22.17
2023-05-25T18:02:41.047Z,21.52
2023-05-25T18:07:45.350Z,23.17
2023-05-25T18:12:52.207Z,22.75
2023-05-25T18:17:57.588Z,23.05
2023-05-25T18:23:03.353Z,24.50
2023-05-25T18:28:07.341Z,24.45
2023-05-25T18:33:12.824Z,25.38
2023-05-25T18:43:20.716Z,29.25
2023-05-25T18:48:26.584Z,26.90
2023-05-25T18:53:30.545Z,24.77
2023-05-25T18:58:34.590Z,25.63
2023-05-25T19:03:39.997Z,27.00
2023-05-25T19:08:44.271Z,27.77
2023-05-25T19:13:48.242Z,27.60
2023-05-25T19:18:53.595Z,27.52
2023-05-25T19:23:58.038Z,23.05
2023-05-25T19:29:01.997Z,24.55
2023-05-25T19:34:07.562Z,24.73
2023-05-25T19:39:11.652Z,25.60
2023-05-25T19:44:16.050Z,28.30
2023-05-25T19:49:21.632Z,25.08
2023-05-25T19:54:25.583Z,24.55
2023-05-25T19:59:30.384Z,26.10
2023-05-25T20:04:35.732Z,24.43
2023-05-25T20:09:40.031Z,26.65
2023-05-25T20:14:45.190Z,25.50
2023-05-25T20:19:50.475Z,27.00
2023-05-25T20:24:58.077Z,25.63
2023-05-25T20:30:02.056Z,25.83
2023-05-25T20:35:08.230Z,25.75
2023-05-25T20:40:12.349Z,26.75
2023-05-25T20:45:16.505Z,26.92
2023-05-25T20:50:21.811Z,27.85
2023-05-25T20:55:26.762Z,27.15
2023-05-25T21:00:30.727Z,26.57
2023-05-25T21:05:38.179Z,25.73
2023-05-25T21:10:42.292Z,26.52
2023-05-25T21:15:46.456Z,26.42
2023-05-25T21:20:51.984Z,25.92
2023-05-25T21:25:55.962Z,25.15
2023-05-25T21:31:00.302Z,25.35
2023-05-25T21:36:05.909Z,24.60
2023-05-25T21:46:14.108Z,26.67
2023-05-25T21:51:19.590Z,27.65
2023-05-25T21:56:24.110Z,27.83
2023-05-25T22:01:28.047Z,27.20
2023-05-25T22:06:33.973Z,26.35
2023-05-25T22:11:38.686Z,27.92
2023-05-25T22:16:43.184Z,28.10
2023-05-25T22:21:48.493Z,25.40
2023-05-25T22:26:53.212Z,28.00
2023-05-25T22:31:57.233Z,28.42
2023-05-25T22:37:02.730Z,28.92
2023-05-25T22:42:07.257Z,32.85
2023-05-25T22:47:11.195Z,29.85
2023-05-25T22:52:16.696Z,32.17
2023-05-25T22:57:20.717Z,31.95
2023-05-25T23:02:24.726Z,33.75
2023-05-25T23:07:30.158Z,31.83
2023-05-25T23:12:34.182Z,34.15
2023-05-25T23:17:38.356Z,32.15
2023-05-25T23:22:44.088Z,33.33
2023-05-25T23:27:48.021Z,33.05
2023-05-25T23:32:51.911Z,33.75
2023-05-25T23:37:57.772Z,30.48
2023-05-25T23:43:01.780Z,28.55
2023-05-25T23:48:05.813Z,29.30
2023-05-25T23:53:11.448Z,32.75
2023-05-25T23:58:15.703Z,28.73
